Time,TemperatureF,DewpointF,PressureIn,WindDirection,WindDirectionDegrees,WindSpeedMPH,WindSpeedGustMPH,Humidity,HourlyPrecipIn,Conditions,Clouds,dailyrainin,SoftwareType,DateUTC
2013-12-10 00:00:00,29.0,25.1,30.38,NW,315,4.0,11.0,85,0.00,,---,0.00,VWS V14.01,2013-12-10 06:00:00,
2013-12-10 00:30:00,27.9,23.4,30.39,NW,315,2.0,6.0,83,0.00,,---,0.00,VWS V14.01,2013-12-10 06:30:00,
2013-12-10 01:00:00,27.3,23.1,30.40,NW,315,2.0,5.0,84,0.00,,---,0.00,VWS V14.01,2013-12-10 07:00:00,
2013-12-10 01:30:00,26.9,21.9,30.40,NW,315,4.0,10.0,81,0.00,,---,0.00,VWS V14.01,2013-12-10 07:30:00,
2013-12-10 02:00:00,26.4,20.8,30.41,NW,315,3.0,10.0,79,0.00,,---,0.00,VWS V14.01,2013-12-10 08:00:00,
2013-12-10 02:30:00,26.1,19.9,30.41,NW,315,3.0,10.0,77,0.00,,---,0.00,VWS V14.01,2013-12-10 08:30:00,
2013-12-10 03:00:00,25.7,19.8,30.42,NW,315,4.0,11.0,78,0.00,,---,0.00,VWS V14.01,2013-12-10 09:00:00,
2013-12-10 03:30:00,25.2,19.6,30.43,NW,315,3.0,8.0,79,0.00,,---,0.00,VWS V14.01,2013-12-10 09:30:00,
2013-12-10 04:00:00,24.7,19.4,30.44,NW,315,3.0,9.0,80,0.00,,---,0.00,VWS V14.01,2013-12-10 10:00:00,
2013-12-10 04:30:00,24.0,19.3,30.43,NW,315,2.0,6.0,82,0.00,,---,0.00,VWS V14.01,2013-12-10 10:30:00,
2013-12-10 05:00:00,23.4,19.3,30.43,NW,315,1.0,4.0,84,0.00,,---,0.00,VWS V14.01,2013-12-10 11:00:00,
2013-12-10 05:30:00,22.5,18.7,30.43,NNW,338,1.0,3.0,85,0.00,,---,0.00,VWS V14.01,2013-12-10 11:30:00,
2013-12-10 06:00:00,22.0,18.7,30.43,NW,315,1.0,3.0,87,0.00,,---,0.00,VWS V14.01,2013-12-10 12:00:00,
2013-12-10 06:30:00,21.5,18.2,30.44,NW,315,1.0,3.0,87,0.00,,---,0.00,VWS V14.01,2013-12-10 12:30:00,
2013-12-10 07:00:00,20.9,17.9,30.44,NW,315,1.0,3.0,88,0.00,,---,0.00,VWS V14.01,2013-12-10 13:00:00,
2013-12-10 07:30:00,20.8,18.1,30.46,NW,315,1.0,2.0,89,0.00,,---,0.00,VWS V14.01,2013-12-10 13:30:00,
2013-12-10 08:00:00,22.1,18.8,30.48,NW,315,1.0,3.0,87,0.00,,---,0.00,VWS V14.01,2013-12-10 14:00:00,
2013-12-10 08:30:00,23.5,19.7,30.48,NW,315,2.0,5.0,85,0.00,,---,0.00,VWS V14.01,2013-12-10 14:30:00,
2013-12-10 09:00:00,24.7,20.0,30.50,NW,315,3.0,9.0,82,0.00,,---,0.00,VWS V14.01,2013-12-10 15:00:00,
2013-12-10 09:30:00,25.8,20.5,30.50,NW,315,2.0,6.0,80,0.00,,---,0.00,VWS V14.01,2013-12-10 15:30:00,
2013-12-10 10:00:00,27.8,21.5,30.51,NW,315,2.0,6.0,77,0.00,,---,0.00,VWS V14.01,2013-12-10 16:00:00,
2013-12-10 10:30:00,30.2,22.6,30.51,NW,315,1.0,5.0,73,0.00,,---,0.00,VWS V14.01,2013-12-10 16:30:00,
2013-12-10 11:00:00,33.7,25.0,30.50,NE,45,1.0,6.0,70,0.00,,---,0.00,VWS V14.01,2013-12-10 17:00:00,
2013-12-10 11:30:00,34.3,25.2,30.49,NE,45,2.0,7.0,69,0.00,,---,0.00,VWS V14.01,2013-12-10 17:30:00,
2013-12-10 12:00:00,36.9,26.6,30.47,ENE,68,2.0,6.0,66,0.00,,---,0.00,VWS V14.01,2013-12-10 18:00:00,
2013-12-10 12:30:00,37.9,26.5,30.44,ENE,68,2.0,5.0,63,0.00,,---,0.00,VWS V14.01,2013-12-10 18:30:00,
2013-12-10 13:00:00,39.4,26.3,30.43,East,90,2.0,6.0,59,0.00,,---,0.00,VWS V14.01,2013-12-10 19:00:00,
2013-12-10 13:30:00,40.2,26.2,30.41,NW,315,1.0,5.0,57,0.00,,---,0.00,VWS V14.01,2013-12-10 19:30:00,
2013-12-10 14:00:00,42.9,27.4,30.40,East,90,1.0,4.0,54,0.00,,---,0.00,VWS V14.01,2013-12-10 20:00:00,
2013-12-10 14:30:00,43.2,27.2,30.38,NW,315,1.0,4.0,53,0.00,,---,0.00,VWS V14.01,2013-12-10 20:30:00,
2013-12-10 15:00:00,42.5,26.6,30.38,ESE,112,1.0,3.0,53,0.00,,---,0.00,VWS V14.01,2013-12-10 21:00:00,
2013-12-10 15:30:00,42.9,26.5,30.38,SSE,158,2.0,4.0,52,0.00,,---,0.00,VWS V14.01,2013-12-10 21:30:00,
2013-12-10 16:00:00,43.3,28.2,30.37,SW,225,1.0,6.0,55,0.00,,---,0.00,VWS V14.01,2013-12-10 22:00:00,
2013-12-10 16:30:00,42.3,26.9,30.38,SW,225,1.0,3.0,54,0.00,,---,0.00,VWS V14.01,2013-12-10 22:30:00,
2013-12-10 17:00:00,39.9,27.6,30.37,SW,225,1.0,3.0,61,0.00,,---,0.00,VWS V14.01,2013-12-10 23:00:00,
2013-12-10 17:30:00,37.2,27.6,30.37,West,270,0.0,1.0,68,0.00,,---,0.00,VWS V14.01,2013-12-10 23:30:00,
2013-12-10 18:00:00,35.0,26.2,30.37,West,270,0.0,1.0,70,0.00,,---,0.00,VWS V14.01,2013-12-11 00:00:00,
2013-12-10 18:30:00,34.1,25.7,30.37,West,270,0.0,0.0,71,0.00,,---,0.00,VWS V14.01,2013-12-11 00:30:00,
2013-12-10 19:00:00,32.8,26.1,30.36,NW,315,1.0,3.0,76,0.00,,---,0.00,VWS V14.01,2013-12-11 01:00:00,
2013-12-10 19:30:00,32.9,26.5,30.36,NW,315,0.0,1.0,77,0.00,,---,0.00,VWS V14.01,2013-12-11 01:30:00,
2013-12-10 20:00:00,32.0,26.8,30.38,NW,315,1.0,2.0,81,0.00,,---,0.00,VWS V14.01,2013-12-11 02:00:00,
2013-12-10 20:30:00,31.5,26.4,30.37,NW,315,0.0,2.0,81,0.00,,---,0.00,VWS V14.01,2013-12-11 02:30:00,
2013-12-10 21:00:00,30.2,26.0,30.37,NW,315,0.0,1.0,84,0.00,,---,0.00,VWS V14.01,2013-12-11 03:00:00,
2013-12-10 21:30:00,29.7,26.3,30.38,NW,315,0.0,2.0,87,0.00,,---,0.00,VWS V14.01,2013-12-11 03:30:00,
2013-12-10 22:00:00,30.0,26.9,30.38,NE,45,0.0,2.0,88,0.00,,---,0.00,VWS V14.01,2013-12-11 04:00:00,
2013-12-10 22:30:00,29.4,26.6,30.38,NNE,22,0.0,1.0,89,0.00,,---,0.00,VWS V14.01,2013-12-11 04:30:00,
2013-12-10 23:00:00,28.9,26.6,30.37,NNE,22,0.0,1.0,91,0.00,,---,0.00,VWS V14.01,2013-12-11 05:00:00,
2013-12-10 23:30:00,29.4,27.1,30.37,NNE,22,0.0,3.0,91,0.00,,---,0.00,VWS V14.01,2013-12-11 05:30:00,